createdAt,value
2018-11-14T00:00:31.477Z,21.03
2018-11-14T00:03:00.948Z,20.07
2018-11-14T00:05:29.389Z,18.10
2018-11-14T00:07:57.757Z,13.37
2018-11-14T00:10:26.049Z,17.40
2018-11-14T00:12:54.290Z,17.73
2018-11-14T00:15:23.925Z,18.03
2018-11-14T00:17:52.580Z,16.43
2018-11-14T00:20:20.843Z,14.10
2018-11-14T00:22:49.983Z,15.40
2018-11-14T00:25:18.242Z,16.10
2018-11-14T00:27:46.576Z,23.70
2018-11-14T00:30:23.442Z,20.30
2018-11-14T00:32:51.732Z,19.07
2018-11-14T00:35:20.032Z,17.37
2018-11-14T00:37:48.757Z,18.50
2018-11-14T00:40:18.145Z,17.63
2018-11-14T00:42:46.973Z,21.17
2018-11-14T00:45:16.617Z,14.33
2018-11-14T00:47:46.335Z,19.20
2018-11-14T00:50:15.537Z,17.83
2018-11-14T00:52:44.591Z,20.33
2018-11-14T00:55:16.251Z,20.90
2018-11-14T00:57:45.808Z,17.97
2018-11-14T01:00:16.978Z,15.40
2018-11-14T01:02:45.541Z,13.73
2018-11-14T01:05:14.609Z,20.33
2018-11-14T01:07:42.861Z,18.20
2018-11-14T01:10:12.921Z,17.77
2018-11-14T01:12:41.481Z,16.53
2018-11-14T01:15:15.080Z,15.50
2018-11-14T01:17:46.422Z,18.60
2018-11-14T01:20:15.964Z,19.80
2018-11-14T01:22:44.625Z,24.37
2018-11-14T01:25:13.933Z,18.40
2018-11-14T01:27:42.428Z,19.73
2018-11-14T01:30:16.618Z,16.17
2018-11-14T01:32:45.864Z,21.60
2018-11-14T01:35:14.719Z,16.90
2018-11-14T01:37:43.005Z,15.73
2018-11-14T01:40:19.025Z,24.47
2018-11-14T01:42:52.553Z,26.10
2018-11-14T01:45:20.880Z,15.43
2018-11-14T01:47:49.316Z,22.63
2018-11-14T01:50:17.657Z,15.83
2018-11-14T01:52:45.946Z,27.00
2018-11-14T01:55:16.287Z,20.67
2018-11-14T01:57:44.562Z,19.33
2018-11-14T02:00:14.125Z,24.63
2018-11-14T02:02:42.356Z,21.37
2018-11-14T02:05:11.234Z,22.83
2018-11-14T02:07:39.547Z,22.60
2018-11-14T02:10:09.489Z,18.93
2018-11-14T02:12:38.122Z,21.93
2018-11-14T02:15:07.954Z,20.23
2018-11-14T02:17:36.514Z,23.70
2018-11-14T02:20:05.958Z,23.07
2018-11-14T02:22:34.250Z,22.67
2018-11-14T02:25:02.475Z,28.83
2018-11-14T02:27:30.718Z,26.37
2018-11-14T02:29:58.971Z,25.13
2018-11-14T02:32:27.225Z,20.83
2018-11-14T02:34:55.457Z,26.60
2018-11-14T02:37:23.744Z,25.60
2018-11-14T02:39:51.978Z,21.63
2018-11-14T02:42:20.209Z,23.07
2018-11-14T02:44:48.469Z,29.63
2018-11-14T02:47:16.746Z,21.43
2018-11-14T02:49:45.084Z,22.20
2018-11-14T02:52:13.338Z,23.93
2018-11-14T02:54:41.603Z,30.00
2018-11-14T02:57:09.838Z,29.83
2018-11-14T02:59:38.110Z,24.13
2018-11-14T03:02:06.855Z,29.17
2018-11-14T03:04:35.209Z,34.90
2018-11-14T03:07:03.676Z,30.97
2018-11-14T03:09:31.937Z,30.40
2018-11-14T03:12:00.296Z,26.20
2018-11-14T03:14:28.563Z,29.43
2018-11-14T03:16:57.447Z,23.80
2018-11-14T03:19:26.451Z,22.90
2018-11-14T03:24:30.126Z,25.10
2018-11-14T03:26:58.381Z,30.23
2018-11-14T03:29:26.622Z,25.07
2018-11-14T03:31:54.900Z,29.00
2018-11-14T03:34:23.141Z,29.23
2018-11-14T03:36:51.389Z,28.10
2018-11-14T03:39:19.616Z,31.13
2018-11-14T03:41:47.889Z,28.90
2018-11-14T03:44:16.197Z,24.03
2018-11-14T03:49:37.767Z,32.40
2018-11-14T03:52:06.682Z,25.60
2018-11-14T03:54:35.971Z,26.80
2018-11-14T03:57:04.219Z,28.20
2018-11-14T03:59:32.477Z,29.13
2018-11-14T04:02:02.716Z,31.00
2018-11-14T04:04:30.973Z,32.47
2018-11-14T04:06:59.176Z,27.17
2018-11-14T04:09:27.495Z,27.87
2018-11-14T04:11:55.673Z,25.77
2018-11-14T04:14:23.911Z,31.53
2018-11-14T04:16:52.128Z,28.00
2018-11-14T04:19:20.508Z,28.27
2018-11-14T04:21:48.984Z,30.50
2018-11-14T04:24:17.218Z,28.17
2018-11-14T04:26:45.460Z,29.57
2018-11-14T04:29:13.685Z,31.53
2018-11-14T04:31:41.942Z,39.90
2018-11-14T04:34:10.237Z,32.20
2018-11-14T04:36:38.471Z,34.37
2018-11-14T04:39:09.169Z,32.00
2018-11-14T04:41:37.399Z,36.17
2018-11-14T04:44:06.228Z,38.53
2018-11-14T04:46:34.552Z,34.90
2018-11-14T04:49:02.846Z,40.47
2018-11-14T04:51:31.109Z,43.13
2018-11-14T04:53:59.336Z,43.17
2018-11-14T04:56:27.702Z,45.73
2018-11-14T04:58:56.003Z,56.30
2018-11-14T05:01:24.286Z,45.80
2018-11-14T05:03:52.605Z,46.70
2018-11-14T05:06:20.830Z,46.67
2018-11-14T05:08:49.120Z,47.90
2018-11-14T05:11:17.385Z,49.90
2018-11-14T05:13:45.616Z,52.47
2018-11-14T05:16:13.824Z,51.20
2018-11-14T05:18:42.108Z,52.33
2018-11-14T05:21:10.387Z,56.77
2018-11-14T05:23:38.611Z,52.93
2018-11-14T05:26:06.890Z,58.67
2018-11-14T05:28:35.097Z,54.23
2018-11-14T05:31:03.364Z,60.37
2018-11-14T05:33:31.657Z,59.93
2018-11-14T05:35:59.936Z,63.77
2018-11-14T05:38:28.203Z,63.57
2018-11-14T05:40:56.468Z,61.50
2018-11-14T05:43:24.718Z,58.93
2018-11-14T05:45:52.977Z,64.43
2018-11-14T05:48:21.252Z,67.47
2018-11-14T05:50:49.539Z,67.10
2018-11-14T05:53:17.765Z,64.50
2018-11-14T05:55:46.049Z,64.13
2018-11-14T05:58:14.329Z,68.23
2018-11-14T06:00:42.583Z,67.23
2018-11-14T06:03:10.870Z,57.27
2018-11-14T06:05:39.151Z,61.20
2018-11-14T06:08:07.387Z,69.13
2018-11-14T06:10:35.755Z,68.70
2018-11-14T06:15:57.415Z,61.20
2018-11-14T06:18:25.662Z,65.73
2018-11-14T06:20:53.901Z,59.27
2018-11-14T06:23:22.232Z,68.50
2018-11-14T06:25:50.510Z,65.87
2018-11-14T06:28:18.785Z,65.57
2018-11-14T06:30:47.072Z,68.93
2018-11-14T06:33:15.289Z,65.30
2018-11-14T06:35:43.541Z,60.07
2018-11-14T06:38:11.839Z,66.80
2018-11-14T06:40:40.083Z,67.57
2018-11-14T06:43:08.337Z,61.40
2018-11-14T06:45:36.708Z,59.07
2018-11-14T06:48:05.466Z,58.40
2018-11-14T06:50:33.787Z,57.60
2018-11-14T06:53:03.510Z,53.27
2018-11-14T06:55:31.877Z,59.30
2018-11-14T06:58:00.267Z,55.93
2018-11-14T07:00:29.863Z,51.73
2018-11-14T07:03:02.247Z,55.93
2018-11-14T07:05:30.608Z,52.20
2018-11-14T07:07:58.779Z,54.37
2018-11-14T07:10:29.408Z,55.87
2018-11-14T07:13:02.971Z,49.90
2018-11-14T07:15:31.225Z,56.33
2018-11-14T07:17:59.527Z,48.07
2018-11-14T07:20:29.203Z,49.40
2018-11-14T07:22:57.529Z,50.30
2018-11-14T07:25:25.829Z,55.17
2018-11-14T07:27:54.110Z,53.43
2018-11-14T07:30:25.549Z,49.07
2018-11-14T07:32:56.193Z,52.17
2018-11-14T07:35:24.446Z,47.57
2018-11-14T07:38:37.929Z,48.67
2018-11-14T07:41:07.785Z,46.57
2018-11-14T07:43:36.878Z,48.70
2018-11-14T07:46:05.415Z,56.00
2018-11-14T07:48:34.307Z,53.50
2018-11-14T07:51:02.959Z,53.27
2018-11-14T07:53:31.285Z,53.60
2018-11-14T07:55:59.530Z,52.57
2018-11-14T07:58:27.868Z,55.67
2018-11-14T08:01:02.610Z,48.03
2018-11-14T08:03:30.925Z,50.77
2018-11-14T08:05:59.242Z,52.07
2018-11-14T08:08:27.581Z,49.50
2018-11-14T08:10:55.840Z,51.37
2018-11-14T08:13:25.445Z,49.43
2018-11-14T08:15:55.484Z,48.23
2018-11-14T08:18:24.035Z,47.40
2018-11-14T08:20:52.327Z,42.20
2018-11-14T08:23:20.574Z,46.70
2018-11-14T08:25:49.109Z,52.00
2018-11-14T08:28:17.403Z,53.43
2018-11-14T08:30:46.286Z,52.83
2018-11-14T08:33:14.583Z,47.57
2018-11-14T08:35:42.861Z,53.70
2018-11-14T08:38:11.288Z,54.47
2018-11-14T08:40:39.634Z,54.53
2018-11-14T08:43:08.175Z,49.37
2018-11-14T08:45:36.493Z,57.17
2018-11-14T08:48:05.213Z,48.30
2018-11-14T08:50:33.485Z,53.37
2018-11-14T08:53:02.002Z,51.60
2018-11-14T08:55:30.293Z,53.17
2018-11-14T08:57:58.689Z,54.97
2018-11-14T09:00:28.018Z,47.53
2018-11-14T09:02:56.377Z,51.30
2018-11-14T09:05:24.721Z,46.33
2018-11-14T09:07:53.063Z,48.87
2018-11-14T09:10:22.573Z,45.60
2018-11-14T09:12:50.902Z,46.80
2018-11-14T09:15:20.433Z,53.03
2018-11-14T09:17:48.953Z,53.07
2018-11-14T09:20:18.672Z,45.77
2018-11-14T09:22:47.068Z,49.90
2018-11-14T09:25:22.026Z,49.10
2018-11-14T09:27:50.310Z,46.80
2018-11-14T09:30:22.027Z,52.30
2018-11-14T09:32:50.372Z,50.87
2018-11-14T09:35:19.840Z,47.20
2018-11-14T09:37:48.156Z,42.87
2018-11-14T09:40:18.207Z,48.30
2018-11-14T09:42:46.534Z,47.67
2018-11-14T09:45:16.998Z,52.20
2018-11-14T09:47:45.216Z,52.40
2018-11-14T09:50:18.689Z,98.90
2018-11-14T09:52:48.361Z,52.90
2018-11-14T09:55:16.660Z,52.77
2018-11-14T09:57:45.146Z,44.07
2018-11-14T10:00:15.682Z,45.60
2018-11-14T10:02:44.063Z,39.03
2018-11-14T10:05:15.687Z,44.30
2018-11-14T10:07:44.196Z,39.10
2018-11-14T10:10:13.759Z,42.50
2018-11-14T10:12:42.037Z,43.13
2018-11-14T10:15:13.707Z,39.30
2018-11-14T10:17:42.965Z,44.10
2018-11-14T10:23:03.860Z,37.90
2018-11-14T10:25:32.134Z,43.87
2018-11-14T10:28:00.471Z,52.90
2018-11-14T10:30:29.231Z,41.87
2018-11-14T10:32:57.455Z,41.13
2018-11-14T10:35:25.862Z,34.80
2018-11-14T10:37:54.137Z,40.10
2018-11-14T10:40:24.681Z,45.87
2018-11-14T10:42:53.052Z,39.73
2018-11-14T10:45:22.669Z,45.67
2018-11-14T10:47:51.867Z,36.97
2018-11-14T10:50:21.735Z,45.37
2018-11-14T10:52:49.993Z,47.30
2018-11-14T10:55:18.891Z,39.30
2018-11-14T10:57:47.229Z,46.30
2018-11-14T11:00:23.009Z,41.87
2018-11-14T11:02:56.629Z,40.00
2018-11-14T11:06:27.977Z,45.93
2018-11-14T11:09:01.536Z,47.17
2018-11-14T11:11:31.412Z,48.00
2018-11-14T11:14:06.576Z,43.77
2018-11-14T11:16:34.888Z,43.77
2018-11-14T11:19:03.139Z,39.40
2018-11-14T11:21:31.435Z,43.33
2018-11-14T11:23:59.676Z,40.37
2018-11-14T11:26:27.922Z,57.77
2018-11-14T11:28:56.154Z,44.63
2018-11-14T11:31:24.451Z,47.97
2018-11-14T11:33:52.726Z,50.77
2018-11-14T11:36:21.002Z,43.47
2018-11-14T11:38:49.269Z,45.23
2018-11-14T11:41:17.550Z,46.60
2018-11-14T11:43:45.807Z,44.63
2018-11-14T11:46:14.081Z,44.13
2018-11-14T11:48:42.356Z,47.60
2018-11-14T11:51:10.647Z,41.33
2018-11-14T11:53:38.826Z,51.17
2018-11-14T11:56:07.107Z,46.80
2018-11-14T11:58:35.358Z,49.63
2018-11-14T12:01:03.604Z,52.73
2018-11-14T12:03:31.913Z,49.73
2018-11-14T12:06:00.261Z,67.40
2018-11-14T12:08:28.445Z,55.93
2018-11-14T12:10:56.692Z,54.97
2018-11-14T12:13:25.011Z,57.27
2018-11-14T12:15:53.262Z,57.20
2018-11-14T12:18:21.544Z,56.67
2018-11-14T12:20:49.911Z,54.87
2018-11-14T12:23:19.066Z,60.50
2018-11-14T12:25:47.435Z,60.13
2018-11-14T12:28:15.696Z,58.03
2018-11-14T12:30:44.148Z,59.43
2018-11-14T12:33:12.417Z,62.03
2018-11-14T12:35:40.717Z,59.67
2018-11-14T12:38:09.140Z,69.63
2018-11-14T12:40:37.419Z,62.70
2018-11-14T12:43:07.671Z,60.07
2018-11-14T12:45:36.106Z,55.53
2018-11-14T12:48:04.382Z,57.87
2018-11-14T12:50:32.662Z,62.00
2018-11-14T12:53:00.914Z,58.10
2018-11-14T12:55:29.197Z,57.60
2018-11-14T12:57:57.446Z,60.07
2018-11-14T13:00:25.737Z,54.73
2018-11-14T13:02:53.992Z,58.37
2018-11-14T13:05:22.304Z,65.07
2018-11-14T13:07:50.659Z,56.70
2018-11-14T13:10:19.641Z,59.20
2018-11-14T13:12:48.974Z,64.73
2018-11-14T13:15:18.436Z,61.53
2018-11-14T13:17:46.697Z,61.57
2018-11-14T13:20:17.361Z,86.93
2018-11-14T13:22:46.062Z,84.80
2018-11-14T13:25:14.993Z,68.13
2018-11-14T13:27:44.545Z,56.73
2018-11-14T13:30:16.482Z,55.07
2018-11-14T13:32:45.563Z,67.87
2018-11-14T13:35:15.220Z,64.53
2018-11-14T13:37:44.113Z,69.67
2018-11-14T13:43:05.419Z,62.30
2018-11-14T13:48:26.853Z,55.63
2018-11-14T13:50:55.406Z,53.77
2018-11-14T13:53:23.684Z,59.17
2018-11-14T13:55:51.990Z,63.23
2018-11-14T13:58:20.270Z,55.10
2018-11-14T14:00:48.542Z,62.40
2018-11-14T14:03:16.805Z,52.53
2018-11-14T14:05:45.084Z,50.80
2018-11-14T14:08:13.363Z,55.07
2018-11-14T14:10:41.611Z,65.83
2018-11-14T14:13:09.870Z,53.80
2018-11-14T14:15:38.128Z,55.17
2018-11-14T14:18:06.570Z,55.73
2018-11-14T14:20:34.806Z,55.97
2018-11-14T14:23:03.032Z,48.83
2018-11-14T14:25:31.358Z,49.50
2018-11-14T14:27:59.584Z,50.60
2018-11-14T14:30:27.887Z,55.43
2018-11-14T14:32:56.180Z,51.23
2018-11-14T14:35:24.659Z,48.70
2018-11-14T14:37:52.915Z,50.93
2018-11-14T14:40:22.391Z,54.50
2018-11-14T14:42:50.816Z,50.17
2018-11-14T14:45:20.471Z,49.13
2018-11-14T14:47:48.775Z,47.97
2018-11-14T14:50:18.301Z,42.63
2018-11-14T14:52:46.803Z,53.60
2018-11-14T14:55:18.383Z,46.37
2018-11-14T14:57:47.137Z,43.53
2018-11-14T15:00:18.915Z,42.80
2018-11-14T15:02:47.260Z,42.53
2018-11-14T15:05:15.533Z,53.77
2018-11-14T15:07:43.979Z,54.83
2018-11-14T15:10:14.363Z,45.30
2018-11-14T15:12:42.853Z,52.33
2018-11-14T15:15:11.561Z,47.70
2018-11-14T15:17:39.887Z,36.17
2018-11-14T15:20:15.745Z,41.23
2018-11-14T15:22:44.114Z,41.37
2018-11-14T15:25:16.976Z,36.43
2018-11-14T15:27:45.995Z,47.80
2018-11-14T15:30:19.050Z,45.60
2018-11-14T15:32:47.465Z,48.80
2018-11-14T15:35:15.959Z,45.07
2018-11-14T15:40:36.892Z,32.30
2018-11-14T15:43:05.364Z,44.17
2018-11-14T15:45:33.687Z,38.13
2018-11-14T15:48:02.069Z,31.77
2018-11-14T15:50:30.968Z,38.60
2018-11-14T15:52:59.533Z,39.77
2018-11-14T15:55:27.797Z,35.63
2018-11-14T15:57:56.442Z,34.37
2018-11-14T16:00:25.938Z,38.07
2018-11-14T16:02:54.411Z,35.67
2018-11-14T16:05:23.812Z,47.33
2018-11-14T16:07:53.278Z,38.83
2018-11-14T16:10:23.033Z,42.33
2018-11-14T16:12:51.342Z,48.57
2018-11-14T16:15:22.038Z,48.67
2018-11-14T16:17:50.379Z,50.07
2018-11-14T16:20:19.969Z,42.83
2018-11-14T16:22:48.711Z,37.90
2018-11-14T16:25:18.282Z,33.63
2018-11-14T16:27:47.467Z,36.17
2018-11-14T16:30:18.057Z,29.30
2018-11-14T16:32:47.537Z,34.10
2018-11-14T16:35:15.974Z,39.87
2018-11-14T16:37:44.614Z,35.70
2018-11-14T16:40:15.123Z,37.13
2018-11-14T16:42:43.472Z,33.13
2018-11-14T16:45:12.417Z,31.47
2018-11-14T16:47:40.885Z,33.73
2018-11-14T16:50:10.674Z,37.17
2018-11-14T16:52:39.072Z,31.63
2018-11-14T16:55:08.444Z,25.67
2018-11-14T16:57:37.554Z,33.60
2018-11-14T17:00:08.794Z,32.53
2018-11-14T17:02:37.188Z,28.37
2018-11-14T17:07:58.513Z,32.33
2018-11-14T17:10:26.950Z,32.10
2018-11-14T17:12:57.615Z,27.60
2018-11-14T17:15:26.673Z,31.37
2018-11-14T17:17:54.926Z,31.23
2018-11-14T17:20:23.696Z,31.00
2018-11-14T17:22:53.062Z,31.27
2018-11-14T17:25:21.558Z,31.00
2018-11-14T17:27:50.053Z,32.07
2018-11-14T17:30:21.602Z,28.90
2018-11-14T17:32:50.100Z,26.80
2018-11-14T17:35:18.772Z,29.30
2018-11-14T17:37:47.427Z,32.57
2018-11-14T17:40:18.030Z,32.73
2018-11-14T17:42:47.206Z,43.43
2018-11-14T17:45:17.114Z,35.80
2018-11-14T17:47:45.710Z,31.90
2018-11-14T17:50:17.249Z,30.97
2018-11-14T17:52:45.737Z,26.00
2018-11-14T17:55:14.858Z,28.83
2018-11-14T17:57:43.251Z,27.20
2018-11-14T18:00:13.668Z,33.23
2018-11-14T18:02:42.904Z,28.60
2018-11-14T18:05:13.381Z,31.60
2018-11-14T18:07:42.161Z,27.33
2018-11-14T18:10:12.174Z,18.73
2018-11-14T18:12:40.830Z,25.60
2018-11-14T18:15:10.052Z,30.87
2018-11-14T18:17:39.036Z,22.27
2018-11-14T18:20:26.894Z,26.47
2018-11-14T18:22:55.385Z,20.87
2018-11-14T18:28:16.813Z,20.33
2018-11-14T18:30:45.152Z,21.30
2018-11-14T18:33:13.537Z,19.07
2018-11-14T18:35:41.976Z,20.70
2018-11-14T18:38:10.253Z,20.40
2018-11-14T18:40:38.549Z,29.07
2018-11-14T18:43:06.829Z,23.50
2018-11-14T18:45:36.055Z,27.77
2018-11-14T18:48:05.176Z,23.57
2018-11-14T18:50:33.442Z,29.40
2018-11-14T18:53:01.670Z,30.00
2018-11-14T18:55:32.317Z,24.47
2018-11-14T18:58:01.469Z,19.87
2018-11-14T19:00:30.881Z,22.03
2018-11-14T19:02:59.577Z,30.90
2018-11-14T19:05:27.951Z,23.63
2018-11-14T19:07:56.293Z,28.80
2018-11-14T19:10:25.990Z,25.47
2018-11-14T19:12:54.430Z,29.03
2018-11-14T19:15:23.905Z,25.10
2018-11-14T19:17:52.143Z,23.83
2018-11-14T19:20:21.790Z,20.37
2018-11-14T19:22:50.389Z,23.43
2018-11-14T19:25:20.061Z,20.23
2018-11-14T19:27:48.777Z,20.07
2018-11-14T19:30:18.148Z,24.23
2018-11-14T19:32:47.621Z,24.37
2018-11-14T19:35:16.131Z,29.83
2018-11-14T19:37:45.548Z,21.60
2018-11-14T19:40:16.588Z,20.63
2018-11-14T19:42:45.809Z,29.30
2018-11-14T19:45:16.351Z,26.67
2018-11-14T19:47:44.739Z,23.87
2018-11-14T19:50:14.488Z,19.20
2018-11-14T19:52:43.051Z,19.77
2018-11-14T19:55:12.717Z,24.23
2018-11-14T19:57:42.039Z,22.63
2018-11-14T20:00:22.925Z,22.50
2018-11-14T20:02:51.238Z,26.20
2018-11-14T20:05:19.943Z,23.97
2018-11-14T20:07:48.363Z,22.63
2018-11-14T20:10:18.186Z,19.70
2018-11-14T20:12:46.953Z,19.53
2018-11-14T20:15:17.772Z,21.93
2018-11-14T20:17:46.760Z,17.40
2018-11-14T20:20:17.557Z,22.63
2018-11-14T20:22:46.205Z,22.13
2018-11-14T20:25:14.493Z,22.13
2018-11-14T20:27:43.076Z,20.67
2018-11-14T20:30:13.063Z,28.30
2018-11-14T20:32:41.475Z,26.43
2018-11-14T20:35:27.817Z,22.50
2018-11-14T20:37:56.088Z,27.67
2018-11-14T20:40:24.810Z,21.37
2018-11-14T20:42:53.924Z,22.13
2018-11-14T20:45:24.332Z,23.43
2018-11-14T20:47:52.632Z,23.53
2018-11-14T20:50:22.203Z,26.57
2018-11-14T20:55:43.913Z,22.40
2018-11-14T20:58:12.193Z,20.27
2018-11-14T21:00:40.624Z,18.53
2018-11-14T21:03:09.208Z,14.93
2018-11-14T21:05:37.723Z,22.07
2018-11-14T21:08:06.574Z,23.10
2018-11-14T21:10:35.586Z,21.77
2018-11-14T21:13:04.501Z,19.47
2018-11-14T21:15:34.300Z,25.07
2018-11-14T21:18:15.184Z,22.53
2018-11-14T21:20:43.568Z,18.70
2018-11-14T21:23:11.897Z,18.87
2018-11-14T21:28:32.580Z,21.27
2018-11-14T21:31:00.878Z,18.30
2018-11-14T21:33:29.274Z,16.60
2018-11-14T21:35:57.693Z,23.40
2018-11-14T21:38:26.218Z,21.43
2018-11-14T21:40:54.512Z,20.63
2018-11-14T21:43:22.915Z,21.27
2018-11-14T21:45:51.578Z,25.33
2018-11-14T21:48:19.815Z,20.40
2018-11-14T21:50:48.160Z,19.10
2018-11-14T21:53:16.548Z,19.43
2018-11-14T21:55:44.771Z,22.37
2018-11-14T21:58:13.007Z,20.70
2018-11-14T22:00:41.853Z,20.50
2018-11-14T22:03:10.850Z,18.87
2018-11-14T22:05:39.480Z,19.43
2018-11-14T22:08:07.776Z,23.20
2018-11-14T22:10:36.061Z,18.33
2018-11-14T22:13:04.380Z,18.60
2018-11-14T22:15:32.873Z,15.07
2018-11-14T22:18:01.233Z,21.63
2018-11-14T22:20:30.234Z,19.80
2018-11-14T22:22:58.467Z,19.57
2018-11-14T22:25:27.926Z,18.50
2018-11-14T22:27:56.378Z,23.87
2018-11-14T22:30:27.528Z,26.83
2018-11-14T22:32:55.813Z,16.00
2018-11-14T22:35:25.489Z,16.47
2018-11-14T22:37:54.071Z,17.97
2018-11-14T22:40:23.604Z,14.87
2018-11-14T22:42:51.984Z,20.37
2018-11-14T22:45:22.722Z,16.97
2018-11-14T22:47:51.016Z,17.17
2018-11-14T22:50:20.869Z,18.77
2018-11-14T22:52:49.485Z,14.10
2018-11-14T22:55:19.138Z,16.90
2018-11-14T22:57:48.338Z,27.90
2018-11-14T23:00:22.813Z,22.50
2018-11-14T23:02:54.321Z,19.30
2018-11-14T23:05:22.584Z,14.70
2018-11-14T23:07:52.051Z,20.13
2018-11-14T23:10:21.248Z,23.23
2018-11-14T23:12:49.859Z,25.63
2018-11-14T23:15:18.539Z,28.03
2018-11-14T23:17:47.467Z,16.70
2018-11-14T23:20:16.416Z,16.73
2018-11-14T23:22:45.251Z,21.07
2018-11-14T23:25:14.025Z,22.90
2018-11-14T23:27:45.451Z,18.13
2018-11-14T23:30:14.877Z,24.43
2018-11-14T23:32:44.498Z,29.50
2018-11-14T23:35:17.174Z,22.77
2018-11-14T23:37:47.785Z,20.23
2018-11-14T23:40:15.992Z,17.37
2018-11-14T23:42:44.288Z,16.97
2018-11-14T23:45:13.734Z,19.13
2018-11-14T23:47:42.772Z,14.17
2018-11-14T23:50:13.673Z,14.43
2018-11-14T23:52:43.049Z,18.10
2018-11-14T23:55:11.345Z,17.10
2018-11-14T23:57:39.867Z,13.53
